sensor_id;sensor_type;location;lat;lon;timestamp;P1;durP1;ratioP1;P2;durP2;ratioP2
31594;SDS011;18200;48.726;8.892;2024-02-23T00:00:34;1.02;;;0.15;;
31594;SDS011;18200;48.726;8.892;2024-02-23T00:04:34;1.00;;;0.20;;
31594;SDS011;18200;48.726;8.892;2024-02-23T00:08:34;2.05;;;0.40;;
31594;SDS011;18200;48.726;8.892;2024-02-23T00:12:35;2.83;;;0.20;;
31594;SDS011;18200;48.726;8.892;2024-02-23T00:16:39;2.60;;;0.55;;
31594;SDS011;18200;48.726;8.892;2024-02-23T00:20:40;4.15;;;0.55;;
31594;SDS011;18200;48.726;8.892;2024-02-23T00:24:40;2.25;;;0.38;;
31594;SDS011;18200;48.726;8.892;2024-02-23T00:28:40;1.95;;;0.50;;
31594;SDS011;18200;48.726;8.892;2024-02-23T00:32:41;4.80;;;0.98;;
31594;SDS011;18200;48.726;8.892;2024-02-23T00:36:41;2.05;;;0.47;;
31594;SDS011;18200;48.726;8.892;2024-02-23T00:40:44;4.63;;;0.70;;
31594;SDS011;18200;48.726;8.892;2024-02-23T00:44:45;3.75;;;0.52;;
31594;SDS011;18200;48.726;8.892;2024-02-23T00:48:46;4.30;;;0.60;;
31594;SDS011;18200;48.726;8.892;2024-02-23T00:52:47;4.93;;;0.50;;
31594;SDS011;18200;48.726;8.892;2024-02-23T00:56:47;6.63;;;1.13;;
31594;SDS011;18200;48.726;8.892;2024-02-23T01:00:47;4.60;;;0.65;;
31594;SDS011;18200;48.726;8.892;2024-02-23T01:04:48;2.83;;;0.63;;
31594;SDS011;18200;48.726;8.892;2024-02-23T01:08:48;5.93;;;0.65;;
31594;SDS011;18200;48.726;8.892;2024-02-23T01:12:49;5.63;;;0.90;;
31594;SDS011;18200;48.726;8.892;2024-02-23T01:16:49;5.32;;;0.70;;
31594;SDS011;18200;48.726;8.892;2024-02-23T01:20:50;4.40;;;0.85;;
31594;SDS011;18200;48.726;8.892;2024-02-23T01:24:50;6.10;;;0.95;;
31594;SDS011;18200;48.726;8.892;2024-02-23T01:28:51;1.52;;;0.50;;
31594;SDS011;18200;48.726;8.892;2024-02-23T01:32:51;7.00;;;0.90;;
31594;SDS011;18200;48.726;8.892;2024-02-23T01:36:52;6.20;;;0.90;;
31594;SDS011;18200;48.726;8.892;2024-02-23T01:40:53;4.95;;;0.60;;
31594;SDS011;18200;48.726;8.892;2024-02-23T01:44:59;4.80;;;0.73;;
31594;SDS011;18200;48.726;8.892;2024-02-23T01:49:01;4.07;;;0.65;;
31594;SDS011;18200;48.726;8.892;2024-02-23T01:53:02;4.70;;;0.90;;
31594;SDS011;18200;48.726;8.892;2024-02-23T01:57:02;3.83;;;0.60;;
31594;SDS011;18200;48.726;8.892;2024-02-23T02:01:03;7.18;;;0.82;;
31594;SDS011;18200;48.726;8.892;2024-02-23T02:05:04;2.25;;;0.60;;
31594;SDS011;18200;48.726;8.892;2024-02-23T02:09:04;2.75;;;0.45;;
31594;SDS011;18200;48.726;8.892;2024-02-23T02:13:05;4.25;;;0.40;;
31594;SDS011;18200;48.726;8.892;2024-02-23T02:17:06;3.70;;;0.63;;
31594;SDS011;18200;48.726;8.892;2024-02-23T02:21:07;3.63;;;0.40;;
31594;SDS011;18200;48.726;8.892;2024-02-23T02:25:07;7.07;;;0.70;;
31594;SDS011;18200;48.726;8.892;2024-02-23T02:29:08;3.47;;;0.93;;
31594;SDS011;18200;48.726;8.892;2024-02-23T02:33:08;1.73;;;0.43;;
31594;SDS011;18200;48.726;8.892;2024-02-23T02:37:09;4.90;;;0.70;;
31594;SDS011;18200;48.726;8.892;2024-02-23T02:41:09;3.75;;;0.80;;
31594;SDS011;18200;48.726;8.892;2024-02-23T02:45:09;5.55;;;0.35;;
31594;SDS011;18200;48.726;8.892;2024-02-23T02:49:10;4.38;;;0.60;;
31594;SDS011;18200;48.726;8.892;2024-02-23T02:53:10;5.10;;;0.90;;
31594;SDS011;18200;48.726;8.892;2024-02-23T02:57:11;3.63;;;0.68;;
31594;SDS011;18200;48.726;8.892;2024-02-23T03:01:11;3.97;;;0.70;;
31594;SDS011;18200;48.726;8.892;2024-02-23T03:05:12;2.92;;;0.50;;
31594;SDS011;18200;48.726;8.892;2024-02-23T03:09:12;2.22;;;0.38;;
31594;SDS011;18200;48.726;8.892;2024-02-23T03:13:13;1.75;;;0.60;;
31594;SDS011;18200;48.726;8.892;2024-02-23T03:17:14;1.55;;;0.60;;
31594;SDS011;18200;48.726;8.892;2024-02-23T03:21:14;7.35;;;0.65;;
31594;SDS011;18200;48.726;8.892;2024-02-23T03:25:15;4.90;;;0.98;;
31594;SDS011;18200;48.726;8.892;2024-02-23T03:29:15;3.28;;;0.60;;
31594;SDS011;18200;48.726;8.892;2024-02-23T03:33:16;3.50;;;0.50;;
31594;SDS011;18200;48.726;8.892;2024-02-23T03:37:16;5.63;;;0.90;;
31594;SDS011;18200;48.726;8.892;2024-02-23T03:41:17;5.68;;;0.90;;
31594;SDS011;18200;48.726;8.892;2024-02-23T03:45:17;3.70;;;0.90;;
31594;SDS011;18200;48.726;8.892;2024-02-23T03:49:17;4.35;;;0.63;;
31594;SDS011;18200;48.726;8.892;2024-02-23T03:53:18;1.90;;;0.60;;
31594;SDS011;18200;48.726;8.892;2024-02-23T03:57:18;4.35;;;0.77;;
31594;SDS011;18200;48.726;8.892;2024-02-23T04:01:19;4.95;;;0.68;;
31594;SDS011;18200;48.726;8.892;2024-02-23T04:05:19;4.97;;;0.57;;
31594;SDS011;18200;48.726;8.892;2024-02-23T04:09:20;5.50;;;0.60;;
31594;SDS011;18200;48.726;8.892;2024-02-23T04:13:21;5.00;;;1.00;;
31594;SDS011;18200;48.726;8.892;2024-02-23T04:17:21;3.63;;;0.60;;
31594;SDS011;18200;48.726;8.892;2024-02-23T04:21:22;2.97;;;0.75;;
31594;SDS011;18200;48.726;8.892;2024-02-23T04:25:22;6.03;;;2.80;;
31594;SDS011;18200;48.726;8.892;2024-02-23T04:29:23;5.63;;;1.85;;
31594;SDS011;18200;48.726;8.892;2024-02-23T04:33:23;4.38;;;0.70;;
31594;SDS011;18200;48.726;8.892;2024-02-23T04:37:24;4.95;;;0.77;;
31594;SDS011;18200;48.726;8.892;2024-02-23T04:41:24;3.28;;;0.82;;
31594;SDS011;18200;48.726;8.892;2024-02-23T04:45:24;1.25;;;0.50;;
31594;SDS011;18200;48.726;8.892;2024-02-23T04:49:25;6.63;;;0.70;;
31594;SDS011;18200;48.726;8.892;2024-02-23T04:53:25;4.68;;;0.60;;
31594;SDS011;18200;48.726;8.892;2024-02-23T04:57:25;2.30;;;0.80;;
31594;SDS011;18200;48.726;8.892;2024-02-23T05:01:26;3.05;;;0.57;;
31594;SDS011;18200;48.726;8.892;2024-02-23T05:05:26;6.50;;;0.75;;
31594;SDS011;18200;48.726;8.892;2024-02-23T05:09:27;2.65;;;0.65;;
31594;SDS011;18200;48.726;8.892;2024-02-23T05:13:28;4.38;;;1.23;;
31594;SDS011;18200;48.726;8.892;2024-02-23T05:17:29;3.17;;;0.60;;
31594;SDS011;18200;48.726;8.892;2024-02-23T05:21:29;8.15;;;0.95;;
31594;SDS011;18200;48.726;8.892;2024-02-23T05:25:30;3.30;;;0.88;;
31594;SDS011;18200;48.726;8.892;2024-02-23T05:29:30;8.60;;;0.80;;
31594;SDS011;18200;48.726;8.892;2024-02-23T05:33:32;5.00;;;1.00;;
31594;SDS011;18200;48.726;8.892;2024-02-23T05:37:32;3.50;;;0.95;;
31594;SDS011;18200;48.726;8.892;2024-02-23T05:41:33;4.72;;;1.17;;
31594;SDS011;18200;48.726;8.892;2024-02-23T05:45:34;4.70;;;0.75;;
31594;SDS011;18200;48.726;8.892;2024-02-23T05:49:34;5.10;;;1.02;;
31594;SDS011;18200;48.726;8.892;2024-02-23T05:53:35;2.47;;;1.10;;
31594;SDS011;18200;48.726;8.892;2024-02-23T05:57:39;3.27;;;0.73;;
31594;SDS011;18200;48.726;8.892;2024-02-23T06:01:40;6.63;;;1.13;;
31594;SDS011;18200;48.726;8.892;2024-02-23T06:05:40;4.72;;;1.20;;
31594;SDS011;18200;48.726;8.892;2024-02-23T06:09:43;5.80;;;1.10;;
31594;SDS011;18200;48.726;8.892;2024-02-23T06:13:44;6.53;;;1.58;;
31594;SDS011;18200;48.726;8.892;2024-02-23T06:17:47;3.60;;;1.33;;
31594;SDS011;18200;48.726;8.892;2024-02-23T06:21:49;5.75;;;1.17;;
31594;SDS011;18200;48.726;8.892;2024-02-23T06:25:50;6.40;;;1.05;;
31594;SDS011;18200;48.726;8.892;2024-02-23T06:29:50;5.15;;;1.15;;
31594;SDS011;18200;48.726;8.892;2024-02-23T06:33:51;4.38;;;1.50;;
31594;SDS011;18200;48.726;8.892;2024-02-23T06:37:52;2.00;;;0.80;;
31594;SDS011;18200;48.726;8.892;2024-02-23T06:41:52;5.25;;;1.30;;
31594;SDS011;18200;48.726;8.892;2024-02-23T06:45:57;5.43;;;1.30;;
31594;SDS011;18200;48.726;8.892;2024-02-23T06:49:58;8.55;;;1.45;;
31594;SDS011;18200;48.726;8.892;2024-02-23T06:53:58;5.85;;;1.15;;
31594;SDS011;18200;48.726;8.892;2024-02-23T06:58:03;6.50;;;2.17;;
31594;SDS011;18200;48.726;8.892;2024-02-23T07:02:04;6.10;;;1.65;;
31594;SDS011;18200;48.726;8.892;2024-02-23T07:06:09;9.55;;;3.53;;
31594;SDS011;18200;48.726;8.892;2024-02-23T07:10:12;7.53;;;2.43;;
31594;SDS011;18200;48.726;8.892;2024-02-23T07:14:13;5.03;;;2.10;;
31594;SDS011;18200;48.726;8.892;2024-02-23T07:18:14;5.68;;;1.80;;
31594;SDS011;18200;48.726;8.892;2024-02-23T07:22:16;4.07;;;1.48;;
31594;SDS011;18200;48.726;8.892;2024-02-23T07:26:18;4.72;;;1.33;;
31594;SDS011;18200;48.726;8.892;2024-02-23T07:30:20;4.28;;;1.20;;
31594;SDS011;18200;48.726;8.892;2024-02-23T07:34:21;2.05;;;1.10;;
31594;SDS011;18200;48.726;8.892;2024-02-23T07:38:21;4.07;;;1.40;;
31594;SDS011;18200;48.726;8.892;2024-02-23T07:42:21;3.97;;;1.88;;
31594;SDS011;18200;48.726;8.892;2024-02-23T07:46:22;7.47;;;2.08;;
31594;SDS011;18200;48.726;8.892;2024-02-23T07:50:23;6.28;;;1.42;;
31594;SDS011;18200;48.726;8.892;2024-02-23T07:54:23;3.63;;;1.20;;
31594;SDS011;18200;48.726;8.892;2024-02-23T07:58:23;4.25;;;1.70;;
31594;SDS011;18200;48.726;8.892;2024-02-23T08:02:24;3.25;;;1.80;;
31594;SDS011;18200;48.726;8.892;2024-02-23T08:06:24;7.07;;;2.58;;
31594;SDS011;18200;48.726;8.892;2024-02-23T08:10:25;15.73;;;5.50;;
31594;SDS011;18200;48.726;8.892;2024-02-23T08:14:26;11.00;;;3.25;;
31594;SDS011;18200;48.726;8.892;2024-02-23T08:18:26;9.40;;;1.80;;
31594;SDS011;18200;48.726;8.892;2024-02-23T08:22:27;4.95;;;2.00;;
31594;SDS011;18200;48.726;8.892;2024-02-23T08:26:28;7.40;;;2.33;;
31594;SDS011;18200;48.726;8.892;2024-02-23T08:30:28;6.55;;;1.50;;
31594;SDS011;18200;48.726;8.892;2024-02-23T08:34:29;6.43;;;1.98;;
31594;SDS011;18200;48.726;8.892;2024-02-23T08:38:29;6.97;;;1.58;;
31594;SDS011;18200;48.726;8.892;2024-02-23T08:42:30;6.70;;;1.10;;
31594;SDS011;18200;48.726;8.892;2024-02-23T08:46:34;5.60;;;1.08;;
31594;SDS011;18200;48.726;8.892;2024-02-23T08:50:47;4.90;;;1.13;;
31594;SDS011;18200;48.726;8.892;2024-02-23T08:54:56;6.63;;;0.90;;
31594;SDS011;18200;48.726;8.892;2024-02-23T08:59:04;4.72;;;1.05;;
31594;SDS011;18200;48.726;8.892;2024-02-23T09:03:04;8.75;;;1.48;;
31594;SDS011;18200;48.726;8.892;2024-02-23T09:07:05;8.48;;;1.50;;
31594;SDS011;18200;48.726;8.892;2024-02-23T09:11:06;11.77;;;1.98;;
31594;SDS011;18200;48.726;8.892;2024-02-23T09:15:06;7.50;;;2.03;;
31594;SDS011;18200;48.726;8.892;2024-02-23T09:19:07;7.32;;;2.10;;
31594;SDS011;18200;48.726;8.892;2024-02-23T09:23:08;12.05;;;3.50;;
31594;SDS011;18200;48.726;8.892;2024-02-23T09:27:09;9.88;;;3.25;;
31594;SDS011;18200;48.726;8.892;2024-02-23T09:31:09;10.68;;;1.90;;
31594;SDS011;18200;48.726;8.892;2024-02-23T09:35:10;6.28;;;2.05;;
31594;SDS011;18200;48.726;8.892;2024-02-23T09:39:10;11.20;;;2.10;;
31594;SDS011;18200;48.726;8.892;2024-02-23T09:43:11;13.88;;;1.45;;
31594;SDS011;18200;48.726;8.892;2024-02-23T09:47:12;5.63;;;1.73;;
31594;SDS011;18200;48.726;8.892;2024-02-23T09:51:14;5.70;;;1.50;;
31594;SDS011;18200;48.726;8.892;2024-02-23T09:55:16;6.75;;;1.30;;
31594;SDS011;18200;48.726;8.892;2024-02-23T09:59:21;6.80;;;1.80;;
31594;SDS011;18200;48.726;8.892;2024-02-23T10:03:21;5.82;;;1.98;;
31594;SDS011;18200;48.726;8.892;2024-02-23T10:07:26;8.45;;;1.98;;
31594;SDS011;18200;48.726;8.892;2024-02-23T10:11:26;9.15;;;1.63;;
31594;SDS011;18200;48.726;8.892;2024-02-23T10:15:29;6.35;;;1.17;;
31594;SDS011;18200;48.726;8.892;2024-02-23T10:19:33;5.70;;;1.20;;
31594;SDS011;18200;48.726;8.892;2024-02-23T10:23:34;10.27;;;1.70;;
31594;SDS011;18200;48.726;8.892;2024-02-23T10:27:34;6.85;;;1.55;;
31594;SDS011;18200;48.726;8.892;2024-02-23T10:31:35;6.57;;;1.30;;
31594;SDS011;18200;48.726;8.892;2024-02-23T10:35:37;6.50;;;1.30;;
31594;SDS011;18200;48.726;8.892;2024-02-23T10:39:41;12.40;;;2.42;;
31594;SDS011;18200;48.726;8.892;2024-02-23T10:43:51;10.27;;;1.45;;
31594;SDS011;18200;48.726;8.892;2024-02-23T10:47:53;4.57;;;1.33;;
31594;SDS011;18200;48.726;8.892;2024-02-23T10:51:55;9.13;;;1.70;;
31594;SDS011;18200;48.726;8.892;2024-02-23T10:55:56;10.02;;;1.77;;
31594;SDS011;18200;48.726;8.892;2024-02-23T10:59:58;8.20;;;1.60;;
31594;SDS011;18200;48.726;8.892;2024-02-23T11:03:59;8.20;;;2.33;;
31594;SDS011;18200;48.726;8.892;2024-02-23T11:08:00;12.48;;;2.20;;
31594;SDS011;18200;48.726;8.892;2024-02-23T11:12:03;9.98;;;1.45;;
31594;SDS011;18200;48.726;8.892;2024-02-23T11:16:08;9.45;;;1.67;;
31594;SDS011;18200;48.726;8.892;2024-02-23T11:20:09;14.75;;;3.00;;
31594;SDS011;18200;48.726;8.892;2024-02-23T11:24:16;7.75;;;2.03;;
31594;SDS011;18200;48.726;8.892;2024-02-23T11:28:24;8.00;;;1.77;;
31594;SDS011;18200;48.726;8.892;2024-02-23T11:32:36;9.85;;;1.65;;
31594;SDS011;18200;48.726;8.892;2024-02-23T11:36:44;7.90;;;1.20;;
31594;SDS011;18200;48.726;8.892;2024-02-23T11:40:56;8.10;;;1.63;;
31594;SDS011;18200;48.726;8.892;2024-02-23T11:45:00;7.63;;;1.40;;
31594;SDS011;18200;48.726;8.892;2024-02-23T11:49:01;8.02;;;1.38;;
31594;SDS011;18200;48.726;8.892;2024-02-23T11:53:07;8.43;;;1.60;;
31594;SDS011;18200;48.726;8.892;2024-02-23T11:57:14;9.50;;;1.52;;
31594;SDS011;18200;48.726;8.892;2024-02-23T12:01:15;10.05;;;1.60;;
31594;SDS011;18200;48.726;8.892;2024-02-23T12:05:16;6.00;;;1.67;;
31594;SDS011;18200;48.726;8.892;2024-02-23T12:09:17;12.13;;;1.80;;
31594;SDS011;18200;48.726;8.892;2024-02-23T12:13:17;7.97;;;1.48;;
31594;SDS011;18200;48.726;8.892;2024-02-23T12:17:18;14.82;;;4.05;;
31594;SDS011;18200;48.726;8.892;2024-02-23T12:21:18;8.02;;;1.27;;
31594;SDS011;18200;48.726;8.892;2024-02-23T12:25:19;11.27;;;2.90;;
31594;SDS011;18200;48.726;8.892;2024-02-23T12:29:19;12.35;;;3.00;;
31594;SDS011;18200;48.726;8.892;2024-02-23T12:33:19;12.95;;;2.80;;
31594;SDS011;18200;48.726;8.892;2024-02-23T12:37:20;18.05;;;3.20;;
31594;SDS011;18200;48.726;8.892;2024-02-23T12:41:22;8.48;;;1.70;;
31594;SDS011;18200;48.726;8.892;2024-02-23T12:45:23;8.15;;;1.55;;
31594;SDS011;18200;48.726;8.892;2024-02-23T12:49:23;15.20;;;4.60;;
31594;SDS011;18200;48.726;8.892;2024-02-23T12:53:34;11.52;;;2.00;;
31594;SDS011;18200;48.726;8.892;2024-02-23T12:57:38;7.50;;;1.98;;
31594;SDS011;18200;48.726;8.892;2024-02-23T13:01:38;14.52;;;3.33;;
31594;SDS011;18200;48.726;8.892;2024-02-23T13:05:39;9.65;;;3.47;;
31594;SDS011;18200;48.726;8.892;2024-02-23T13:09:39;15.93;;;2.90;;
31594;SDS011;18200;48.726;8.892;2024-02-23T13:13:40;7.88;;;2.08;;
31594;SDS011;18200;48.726;8.892;2024-02-23T13:17:40;11.07;;;1.70;;
31594;SDS011;18200;48.726;8.892;2024-02-23T13:21:41;17.30;;;4.72;;
31594;SDS011;18200;48.726;8.892;2024-02-23T13:25:41;12.75;;;4.10;;
31594;SDS011;18200;48.726;8.892;2024-02-23T13:29:42;10.85;;;2.35;;
31594;SDS011;18200;48.726;8.892;2024-02-23T13:33:42;12.18;;;2.83;;
31594;SDS011;18200;48.726;8.892;2024-02-23T13:37:44;14.98;;;2.95;;
31594;SDS011;18200;48.726;8.892;2024-02-23T13:41:44;13.40;;;2.85;;
31594;SDS011;18200;48.726;8.892;2024-02-23T13:45:48;25.65;;;13.52;;
31594;SDS011;18200;48.726;8.892;2024-02-23T13:49:55;19.42;;;7.65;;
31594;SDS011;18200;48.726;8.892;2024-02-23T13:53:56;18.67;;;8.55;;
31594;SDS011;18200;48.726;8.892;2024-02-23T13:57:56;16.67;;;4.07;;
31594;SDS011;18200;48.726;8.892;2024-02-23T14:01:56;11.90;;;2.22;;
31594;SDS011;18200;48.726;8.892;2024-02-23T14:05:57;10.95;;;1.98;;
31594;SDS011;18200;48.726;8.892;2024-02-23T14:09:58;11.82;;;2.13;;
31594;SDS011;18200;48.726;8.892;2024-02-23T14:13:59;10.30;;;1.70;;
31594;SDS011;18200;48.726;8.892;2024-02-23T14:17:59;9.10;;;1.98;;
31594;SDS011;18200;48.726;8.892;2024-02-23T14:21:59;9.65;;;1.52;;
31594;SDS011;18200;48.726;8.892;2024-02-23T14:26:00;5.82;;;1.67;;
31594;SDS011;18200;48.726;8.892;2024-02-23T14:30:01;8.93;;;2.15;;
31594;SDS011;18200;48.726;8.892;2024-02-23T14:34:02;8.90;;;1.52;;
31594;SDS011;18200;48.726;8.892;2024-02-23T14:38:02;7.55;;;2.00;;
31594;SDS011;18200;48.726;8.892;2024-02-23T14:42:03;9.15;;;1.98;;
31594;SDS011;18200;48.726;8.892;2024-02-23T14:46:03;10.90;;;1.73;;
31594;SDS011;18200;48.726;8.892;2024-02-23T14:50:05;9.05;;;1.77;;
31594;SDS011;18200;48.726;8.892;2024-02-23T14:54:06;10.98;;;2.03;;
31594;SDS011;18200;48.726;8.892;2024-02-23T14:58:06;6.72;;;1.55;;
31594;SDS011;18200;48.726;8.892;2024-02-23T15:02:07;16.08;;;4.47;;
31594;SDS011;18200;48.726;8.892;2024-02-23T15:06:08;15.48;;;4.72;;
31594;SDS011;18200;48.726;8.892;2024-02-23T15:10:10;8.48;;;1.63;;
31594;SDS011;18200;48.726;8.892;2024-02-23T15:14:11;10.43;;;1.60;;
31594;SDS011;18200;48.726;8.892;2024-02-23T15:18:15;6.95;;;1.45;;
31594;SDS011;18200;48.726;8.892;2024-02-23T15:22:15;7.30;;;1.80;;
31594;SDS011;18200;48.726;8.892;2024-02-23T15:26:18;10.38;;;2.10;;
31594;SDS011;18200;48.726;8.892;2024-02-23T15:30:18;8.68;;;1.67;;
31594;SDS011;18200;48.726;8.892;2024-02-23T15:34:18;9.32;;;2.33;;
31594;SDS011;18200;48.726;8.892;2024-02-23T15:38:19;7.57;;;2.10;;
31594;SDS011;18200;48.726;8.892;2024-02-23T15:42:19;7.65;;;2.00;;
31594;SDS011;18200;48.726;8.892;2024-02-23T15:46:20;16.35;;;4.22;;
31594;SDS011;18200;48.726;8.892;2024-02-23T15:50:21;15.57;;;4.30;;
31594;SDS011;18200;48.726;8.892;2024-02-23T15:54:22;19.15;;;6.20;;
31594;SDS011;18200;48.726;8.892;2024-02-23T15:58:23;22.83;;;9.52;;
31594;SDS011;18200;48.726;8.892;2024-02-23T16:02:23;18.50;;;5.30;;
31594;SDS011;18200;48.726;8.892;2024-02-23T16:06:24;18.58;;;7.80;;
31594;SDS011;18200;48.726;8.892;2024-02-23T16:10:25;14.48;;;4.82;;
31594;SDS011;18200;48.726;8.892;2024-02-23T16:14:25;15.05;;;4.53;;
31594;SDS011;18200;48.726;8.892;2024-02-23T16:18:26;9.15;;;1.92;;
31594;SDS011;18200;48.726;8.892;2024-02-23T16:22:26;16.10;;;5.28;;
31594;SDS011;18200;48.726;8.892;2024-02-23T16:26:27;11.80;;;2.80;;
31594;SDS011;18200;48.726;8.892;2024-02-23T16:30:28;10.75;;;3.60;;
31594;SDS011;18200;48.726;8.892;2024-02-23T16:34:30;8.10;;;3.55;;
31594;SDS011;18200;48.726;8.892;2024-02-23T16:38:31;9.63;;;3.20;;
31594;SDS011;18200;48.726;8.892;2024-02-23T16:42:32;9.23;;;2.63;;
31594;SDS011;18200;48.726;8.892;2024-02-23T16:46:32;15.85;;;6.20;;
31594;SDS011;18200;48.726;8.892;2024-02-23T16:50:36;15.32;;;5.07;;
31594;SDS011;18200;48.726;8.892;2024-02-23T16:54:41;20.38;;;6.72;;
31594;SDS011;18200;48.726;8.892;2024-02-23T16:58:41;22.13;;;7.60;;
31594;SDS011;18200;48.726;8.892;2024-02-23T17:02:42;26.67;;;9.63;;
31594;SDS011;18200;48.726;8.892;2024-02-23T17:06:42;21.95;;;6.80;;
31594;SDS011;18200;48.726;8.892;2024-02-23T17:10:43;49.80;;;18.00;;
31594;SDS011;18200;48.726;8.892;2024-02-23T17:14:44;77.07;;;26.75;;
31594;SDS011;18200;48.726;8.892;2024-02-23T17:18:44;35.25;;;14.23;;
31594;SDS011;18200;48.726;8.892;2024-02-23T17:22:45;30.70;;;15.98;;
31594;SDS011;18200;48.726;8.892;2024-02-23T17:26:45;18.50;;;6.88;;
31594;SDS011;18200;48.726;8.892;2024-02-23T17:30:46;21.15;;;7.65;;
31594;SDS011;18200;48.726;8.892;2024-02-23T17:34:46;24.42;;;10.98;;
31594;SDS011;18200;48.726;8.892;2024-02-23T17:38:46;16.83;;;8.05;;
31594;SDS011;18200;48.726;8.892;2024-02-23T17:42:47;34.65;;;19.52;;
31594;SDS011;18200;48.726;8.892;2024-02-23T17:46:47;33.47;;;18.02;;
31594;SDS011;18200;48.726;8.892;2024-02-23T17:50:48;22.02;;;10.05;;
31594;SDS011;18200;48.726;8.892;2024-02-23T17:54:48;28.30;;;14.60;;
31594;SDS011;18200;48.726;8.892;2024-02-23T17:58:49;20.58;;;11.20;;
31594;SDS011;18200;48.726;8.892;2024-02-23T18:02:49;17.67;;;7.80;;
31594;SDS011;18200;48.726;8.892;2024-02-23T18:06:49;15.93;;;7.95;;
31594;SDS011;18200;48.726;8.892;2024-02-23T18:10:50;23.65;;;13.00;;
31594;SDS011;18200;48.726;8.892;2024-02-23T18:14:51;20.60;;;11.07;;
31594;SDS011;18200;48.726;8.892;2024-02-23T18:18:51;28.08;;;13.60;;
31594;SDS011;18200;48.726;8.892;2024-02-23T18:22:52;48.15;;;19.90;;
31594;SDS011;18200;48.726;8.892;2024-02-23T18:26:52;30.00;;;12.88;;
31594;SDS011;18200;48.726;8.892;2024-02-23T18:30:52;18.73;;;8.23;;
31594;SDS011;18200;48.726;8.892;2024-02-23T18:34:53;18.05;;;8.05;;
31594;SDS011;18200;48.726;8.892;2024-02-23T18:38:53;21.83;;;8.85;;
31594;SDS011;18200;48.726;8.892;2024-02-23T18:42:54;23.42;;;8.75;;
31594;SDS011;18200;48.726;8.892;2024-02-23T18:46:54;14.10;;;6.78;;
31594;SDS011;18200;48.726;8.892;2024-02-23T18:50:56;26.95;;;15.63;;
31594;SDS011;18200;48.726;8.892;2024-02-23T18:54:56;22.42;;;8.65;;
31594;SDS011;18200;48.726;8.892;2024-02-23T18:58:58;14.07;;;6.72;;
31594;SDS011;18200;48.726;8.892;2024-02-23T19:02:58;12.60;;;5.50;;
31594;SDS011;18200;48.726;8.892;2024-02-23T19:06:59;14.77;;;6.38;;
31594;SDS011;18200;48.726;8.892;2024-02-23T19:10:59;21.77;;;9.73;;
31594;SDS011;18200;48.726;8.892;2024-02-23T19:15:00;27.02;;;12.15;;
31594;SDS011;18200;48.726;8.892;2024-02-23T19:19:00;29.30;;;11.43;;
31594;SDS011;18200;48.726;8.892;2024-02-23T19:23:08;134.10;;;51.53;;
31594;SDS011;18200;48.726;8.892;2024-02-23T19:27:08;179.75;;;66.70;;
31594;SDS011;18200;48.726;8.892;2024-02-23T19:31:09;63.22;;;25.42;;
31594;SDS011;18200;48.726;8.892;2024-02-23T19:35:09;75.90;;;29.67;;
31594;SDS011;18200;48.726;8.892;2024-02-23T19:39:10;80.03;;;34.05;;
31594;SDS011;18200;48.726;8.892;2024-02-23T19:43:11;43.53;;;22.67;;
31594;SDS011;18200;48.726;8.892;2024-02-23T19:47:12;32.22;;;14.70;;
31594;SDS011;18200;48.726;8.892;2024-02-23T19:51:14;25.02;;;12.85;;
31594;SDS011;18200;48.726;8.892;2024-02-23T19:55:15;21.33;;;8.93;;
31594;SDS011;18200;48.726;8.892;2024-02-23T19:59:15;35.83;;;15.30;;
31594;SDS011;18200;48.726;8.892;2024-02-23T20:03:16;36.25;;;14.80;;
31594;SDS011;18200;48.726;8.892;2024-02-23T20:07:16;14.13;;;6.65;;
31594;SDS011;18200;48.726;8.892;2024-02-23T20:11:18;11.23;;;5.90;;
31594;SDS011;18200;48.726;8.892;2024-02-23T20:15:19;14.80;;;7.60;;
31594;SDS011;18200;48.726;8.892;2024-02-23T20:19:19;20.05;;;9.30;;
31594;SDS011;18200;48.726;8.892;2024-02-23T20:23:20;100.95;;;47.08;;
31594;SDS011;18200;48.726;8.892;2024-02-23T20:27:20;38.78;;;21.90;;
31594;SDS011;18200;48.726;8.892;2024-02-23T20:31:21;25.25;;;14.05;;
31594;SDS011;18200;48.726;8.892;2024-02-23T20:35:22;24.25;;;13.68;;
31594;SDS011;18200;48.726;8.892;2024-02-23T20:39:22;16.33;;;11.65;;
31594;SDS011;18200;48.726;8.892;2024-02-23T20:43:23;15.45;;;7.93;;
31594;SDS011;18200;48.726;8.892;2024-02-23T20:47:23;18.45;;;9.13;;
31594;SDS011;18200;48.726;8.892;2024-02-23T20:51:24;14.20;;;8.20;;
31594;SDS011;18200;48.726;8.892;2024-02-23T20:55:24;21.25;;;8.65;;
31594;SDS011;18200;48.726;8.892;2024-02-23T20:59:25;12.55;;;6.40;;
31594;SDS011;18200;48.726;8.892;2024-02-23T21:03:26;15.10;;;6.78;;
31594;SDS011;18200;48.726;8.892;2024-02-23T21:07:28;9.75;;;5.82;;
31594;SDS011;18200;48.726;8.892;2024-02-23T21:11:28;14.35;;;6.60;;
31594;SDS011;18200;48.726;8.892;2024-02-23T21:15:29;14.38;;;7.53;;
31594;SDS011;18200;48.726;8.892;2024-02-23T21:19:29;13.02;;;5.85;;
31594;SDS011;18200;48.726;8.892;2024-02-23T21:23:31;18.02;;;7.10;;
31594;SDS011;18200;48.726;8.892;2024-02-23T21:27:31;19.17;;;7.50;;
31594;SDS011;18200;48.726;8.892;2024-02-23T21:31:32;19.05;;;7.18;;
31594;SDS011;18200;48.726;8.892;2024-02-23T21:35:32;14.25;;;6.35;;
31594;SDS011;18200;48.726;8.892;2024-02-23T21:39:35;16.35;;;7.03;;
31594;SDS011;18200;48.726;8.892;2024-02-23T21:43:36;14.57;;;6.70;;
31594;SDS011;18200;48.726;8.892;2024-02-23T21:47:36;14.50;;;8.15;;
31594;SDS011;18200;48.726;8.892;2024-02-23T21:51:37;16.27;;;8.13;;
31594;SDS011;18200;48.726;8.892;2024-02-23T21:55:37;16.08;;;8.68;;
31594;SDS011;18200;48.726;8.892;2024-02-23T21:59:37;16.65;;;9.02;;
31594;SDS011;18200;48.726;8.892;2024-02-23T22:03:38;15.45;;;7.35;;
31594;SDS011;18200;48.726;8.892;2024-02-23T22:07:38;13.88;;;7.07;;
31594;SDS011;18200;48.726;8.892;2024-02-23T22:11:39;10.35;;;5.22;;
31594;SDS011;18200;48.726;8.892;2024-02-23T22:15:39;16.00;;;7.03;;
31594;SDS011;18200;48.726;8.892;2024-02-23T22:19:41;18.38;;;7.07;;
31594;SDS011;18200;48.726;8.892;2024-02-23T22:23:41;17.45;;;7.88;;
31594;SDS011;18200;48.726;8.892;2024-02-23T22:27:42;19.80;;;7.18;;
31594;SDS011;18200;48.726;8.892;2024-02-23T22:31:46;12.55;;;5.80;;
31594;SDS011;18200;48.726;8.892;2024-02-23T22:35:46;15.07;;;6.80;;
31594;SDS011;18200;48.726;8.892;2024-02-23T22:39:47;13.80;;;4.97;;
31594;SDS011;18200;48.726;8.892;2024-02-23T22:43:47;15.98;;;6.50;;
31594;SDS011;18200;48.726;8.892;2024-02-23T22:47:47;14.18;;;5.65;;
31594;SDS011;18200;48.726;8.892;2024-02-23T22:51:48;10.68;;;5.20;;
31594;SDS011;18200;48.726;8.892;2024-02-23T22:55:48;12.13;;;6.38;;
31594;SDS011;18200;48.726;8.892;2024-02-23T22:59:49;15.73;;;6.03;;
31594;SDS011;18200;48.726;8.892;2024-02-23T23:03:49;14.73;;;5.40;;
31594;SDS011;18200;48.726;8.892;2024-02-23T23:07:49;16.50;;;6.10;;
31594;SDS011;18200;48.726;8.892;2024-02-23T23:11:50;12.20;;;4.90;;
31594;SDS011;18200;48.726;8.892;2024-02-23T23:15:50;16.80;;;7.40;;
31594;SDS011;18200;48.726;8.892;2024-02-23T23:19:51;12.77;;;5.38;;
31594;SDS011;18200;48.726;8.892;2024-02-23T23:23:51;16.17;;;6.00;;
31594;SDS011;18200;48.726;8.892;2024-02-23T23:27:52;18.52;;;7.57;;
31594;SDS011;18200;48.726;8.892;2024-02-23T23:31:52;22.95;;;7.50;;
31594;SDS011;18200;48.726;8.892;2024-02-23T23:35:53;18.38;;;7.50;;
31594;SDS011;18200;48.726;8.892;2024-02-23T23:39:56;20.53;;;8.87;;
31594;SDS011;18200;48.726;8.892;2024-02-23T23:43:56;13.98;;;7.05;;
31594;SDS011;18200;48.726;8.892;2024-02-23T23:47:57;23.08;;;7.88;;
31594;SDS011;18200;48.726;8.892;2024-02-23T23:51:57;18.65;;;8.15;;
31594;SDS011;18200;48.726;8.892;2024-02-23T23:55:57;19.80;;;7.75;;
31594;SDS011;18200;48.726;8.892;2024-02-23T23:59:58;22.48;;;7.47;;
